Trenton, UT (84338)

7:50 PM MDT on September 02, 2014 (GMT -0600)
Fairview SW | Change Station
CLOSE
Current Station
Personal Weather Station
Location: Preston, ID
Elevation: 4478 ft
Nearby Weather Stations

Elev 4478 ft 42.01 °N, 111.92 °W | Updated 4 minutes ago

Clear
Clear
74.6 °F
Feels Like 77 °F
N
1.0
Wind Variable Wind from SE
Gusts 1.0 mph

Today
High -- | Low -- °F
--% Chance of Precip.
Yesterday
High -- | Low -- °F
Precip. -- in
6:54 AM 7:59 PM
First Quarter, 57% visible
Pressure 29.75 in
Visibility 10.0 miles
Clouds Clear
Heat Index 77 °F
Dew Point 47 °F
Humidity 38%
Rainfall 0.00 in
Snow Depth Not available.
UV 1 out of 12
Pollen 8.10 out of 12
PM2.5 Good
Flu Activity Not available.
METAR KLGU 030051Z AUTO 00000KT 10SM CLR 28/04 A2987 RMK AO2 SLP072 T02830039

More Conditions Fewer Conditions

Pressure 29.75 in
Visibility 10.0 miles
Clouds Clear
Heat Index 77 °F
Dew Point 47 °F
Humidity 38%
Rainfall 0.00 in
Snow Depth Not available.
UV 1 out of 12
Pollen 8.10 out of 12
PM2.5 Good
Flu Activity Not available.
METAR KLGU 030051Z AUTO 00000KT 10SM CLR 28/04 A2987 RMK AO2 SLP072 T02830039

More Conditions Fewer Conditions

10-Day Weather Forecast

Almanac

Astronomy

Sep. 02, 2014 Rise Set
Actual Time 6:54 AM MDT 7:59 PM MDT
Civil Twilight 6:25 AM MDT 8:27 PM MDT
Nautical Twilight 5:51 AM MDT 9:02 PM MDT
Astronomical Twilight 5:15 AM MDT 9:37 PM MDT
Moon 2:49 PM MDT (9/2) No Moon Set
Length of Visible Light 14h 02m
Length of Day
13h 04m
Tomorrow will be 2m 43s shorter.
First Quarter, 57% of the Moon is Illuminated
Today
First Quarter
Sep 8
Full
Sep 15
Last Quarter
Sep 24
New
Oct 1
First Quarter

Today's Extremes

State Highs State Lows

Community

WunderPhotos

Upload Photos

1,749,829 photos uploaded!

Nearby

Air Quality

  Air Quality AQ Index Pollutant
Yesterday Good
OZONE
Yesterday Good
PM2.5
Current Good
PM2.5

Snow Depth

Station Depth Elevation
Ben Lomond Trail 0 in 6000 ft
Chalk Creek #1 0 in 9100 ft
Thaynes Canyon 0 in 9200 ft
Trial Lake 1 in 9960 ft
Rock Creek 0 in 7900 ft

Earthquake Activity

City Distance Mag. Time & Date
No recent earthquake activity has been reported nearby.
Minimum magnitude displayed is 2.5.

Coastal Water Temperatures

Place Temperature
No Stations Reporting

Nearby Weather Stations